createdAt,value
2019-03-23T00:00:23.177Z,1.80
2019-03-23T00:02:53.741Z,1.87
2019-03-23T00:05:26.154Z,2.50
2019-03-23T00:07:58.542Z,1.80
2019-03-23T00:10:30.150Z,1.73
2019-03-23T00:13:01.508Z,1.30
2019-03-23T00:15:40.797Z,1.87
2019-03-23T00:18:11.914Z,1.60
2019-03-23T00:20:44.205Z,1.63
2019-03-23T00:23:14.390Z,1.27
2019-03-23T00:25:46.404Z,1.83
2019-03-23T00:28:17.654Z,1.57
2019-03-23T00:30:48.290Z,1.90
2019-03-23T00:33:18.927Z,1.40
2019-03-23T00:35:51.882Z,1.80
2019-03-23T00:38:23.230Z,1.40
2019-03-23T00:40:54.386Z,2.00
2019-03-23T00:43:25.077Z,2.00
2019-03-23T00:45:55.861Z,2.03
2019-03-23T00:48:26.335Z,1.77
2019-03-23T00:50:57.593Z,2.00
2019-03-23T00:53:29.401Z,1.90
2019-03-23T00:56:02.106Z,2.33
2019-03-23T00:58:32.986Z,2.33
2019-03-23T01:01:05.865Z,2.40
2019-03-23T01:03:39.457Z,2.30
2019-03-23T01:06:11.925Z,2.20
2019-03-23T01:08:42.979Z,1.97
2019-03-23T01:11:14.237Z,2.50
2019-03-23T01:13:46.074Z,2.10
2019-03-23T01:16:17.632Z,2.00
2019-03-23T01:18:52.329Z,2.67
2019-03-23T01:21:23.205Z,2.27
2019-03-23T01:23:55.032Z,2.70
2019-03-23T01:26:28.665Z,2.07
2019-03-23T01:28:59.472Z,2.57
2019-03-23T01:31:33.070Z,2.13
2019-03-23T01:34:03.950Z,2.10
2019-03-23T01:36:34.689Z,2.40
2019-03-23T01:39:07.527Z,2.50
2019-03-23T01:41:39.107Z,2.00
2019-03-23T01:44:11.401Z,2.43
2019-03-23T01:46:43.585Z,2.17
2019-03-23T01:49:15.901Z,1.80
2019-03-23T01:51:49.777Z,2.20
2019-03-23T01:54:23.529Z,1.90
2019-03-23T01:56:55.248Z,2.33
2019-03-23T01:59:26.615Z,2.13
2019-03-23T02:01:58.361Z,2.30
2019-03-23T02:04:29.605Z,2.10
2019-03-23T02:07:01.376Z,2.20
2019-03-23T02:09:32.933Z,2.00
2019-03-23T02:12:05.233Z,2.53
2019-03-23T02:14:37.575Z,2.07
2019-03-23T02:17:11.797Z,1.87
2019-03-23T02:19:43.040Z,2.20
2019-03-23T02:22:14.970Z,2.07
2019-03-23T02:24:46.487Z,2.33
2019-03-23T02:27:18.001Z,2.73
2019-03-23T02:29:49.774Z,2.30
2019-03-23T02:32:20.870Z,2.27
2019-03-23T02:34:52.188Z,2.90
2019-03-23T02:37:27.786Z,2.50
2019-03-23T02:39:56.610Z,2.80
2019-03-23T02:42:27.870Z,2.60
2019-03-23T02:44:58.173Z,3.00
2019-03-23T02:47:28.497Z,2.87
2019-03-23T02:50:00.650Z,2.70
2019-03-23T02:52:31.329Z,2.80
2019-03-23T02:55:03.370Z,3.03
2019-03-23T02:57:34.397Z,2.47
2019-03-23T03:00:04.510Z,2.70
2019-03-23T03:02:37.372Z,2.50
2019-03-23T03:05:10.546Z,2.60
2019-03-23T03:07:44.139Z,2.80
2019-03-23T03:10:17.877Z,2.60
2019-03-23T03:12:49.122Z,2.83
2019-03-23T03:15:20.036Z,2.50
2019-03-23T03:17:52.555Z,2.60
2019-03-23T03:20:25.379Z,2.50
2019-03-23T03:22:59.809Z,2.50
2019-03-23T03:25:32.603Z,2.60
2019-03-23T03:28:06.746Z,3.00
2019-03-23T03:30:38.525Z,2.73
2019-03-23T03:33:09.962Z,3.17
2019-03-23T03:35:41.822Z,2.73
2019-03-23T03:38:13.448Z,2.63
2019-03-23T03:40:50.801Z,3.00
2019-03-23T03:43:24.543Z,2.73
2019-03-23T03:45:57.674Z,3.33
2019-03-23T03:48:30.087Z,2.90
2019-03-23T03:51:00.668Z,3.33
2019-03-23T03:53:31.519Z,3.20
2019-03-23T03:56:02.006Z,3.60
2019-03-23T03:58:33.787Z,2.60
2019-03-23T04:01:06.056Z,2.83
2019-03-23T04:03:39.688Z,3.27
2019-03-23T04:06:13.466Z,2.80
2019-03-23T04:08:46.290Z,3.30
2019-03-23T04:11:18.190Z,3.20
2019-03-23T04:13:49.471Z,3.00
2019-03-23T04:16:20.323Z,3.40
2019-03-23T04:18:52.619Z,3.37
2019-03-23T04:21:28.566Z,2.93
2019-03-23T04:24:00.494Z,3.53
2019-03-23T04:26:34.750Z,3.33
2019-03-23T04:29:05.324Z,3.40
2019-03-23T04:31:36.701Z,3.30
2019-03-23T04:34:09.415Z,3.57
2019-03-23T04:36:41.861Z,3.70
2019-03-23T04:39:16.158Z,3.87
2019-03-23T04:41:47.461Z,4.40
2019-03-23T04:44:19.773Z,3.90
2019-03-23T04:46:50.879Z,4.33
2019-03-23T04:49:25.533Z,3.83
2019-03-23T04:54:32.034Z,3.90
2019-03-23T04:57:03.725Z,4.33
2019-03-23T04:59:34.485Z,4.20
2019-03-23T05:02:19.885Z,4.40
2019-03-23T05:04:50.701Z,4.60
2019-03-23T05:07:25.305Z,4.30
2019-03-23T05:09:58.601Z,4.67
2019-03-23T05:12:29.049Z,4.40
2019-03-23T05:15:01.218Z,4.93
2019-03-23T05:17:31.525Z,4.30
2019-03-23T05:20:03.641Z,5.20
2019-03-23T05:22:34.909Z,4.73
2019-03-23T05:25:07.225Z,4.93
2019-03-23T05:27:38.269Z,4.87
2019-03-23T05:30:10.749Z,4.60
2019-03-23T05:32:40.877Z,5.40
2019-03-23T05:35:14.267Z,5.03
2019-03-23T05:37:51.619Z,5.87
2019-03-23T05:40:31.866Z,5.20
2019-03-23T05:43:04.089Z,6.27
2019-03-23T05:45:37.322Z,5.87
2019-03-23T05:48:07.454Z,5.80
2019-03-23T05:50:41.716Z,5.70
2019-03-23T05:53:12.989Z,5.93
2019-03-23T05:55:46.253Z,6.27
2019-03-23T05:58:25.398Z,6.40
2019-03-23T06:00:59.058Z,5.70
2019-03-23T06:03:33.753Z,5.63
2019-03-23T06:06:04.285Z,6.37
2019-03-23T06:08:37.172Z,6.73
2019-03-23T06:11:08.229Z,6.30
2019-03-23T06:13:39.642Z,6.47
2019-03-23T06:16:10.939Z,5.87
2019-03-23T06:18:41.833Z,7.60
2019-03-23T06:21:14.775Z,6.70
2019-03-23T06:23:45.562Z,7.20
2019-03-23T06:26:16.045Z,7.27
2019-03-23T06:28:46.871Z,7.10
2019-03-23T06:31:17.325Z,7.07
2019-03-23T06:33:54.165Z,6.53
2019-03-23T06:36:26.970Z,6.80
2019-03-23T06:39:05.377Z,7.63
2019-03-23T06:41:31.642Z,6.90
2019-03-23T06:44:02.070Z,6.60
2019-03-23T06:46:32.377Z,7.03
2019-03-23T06:49:04.124Z,6.10
2019-03-23T06:51:34.868Z,6.93
2019-03-23T06:56:44.897Z,7.23
2019-03-23T06:59:16.799Z,7.83
2019-03-23T07:01:48.885Z,6.87
2019-03-23T07:04:20.057Z,7.30
2019-03-23T07:06:51.422Z,7.27
2019-03-23T07:09:22.389Z,7.53
2019-03-23T07:11:54.197Z,6.53
2019-03-23T07:14:26.833Z,7.37
2019-03-23T07:17:00.897Z,7.37
2019-03-23T07:19:32.086Z,7.17
2019-03-23T07:22:02.053Z,7.53
2019-03-23T07:24:32.682Z,7.33
2019-03-23T07:27:03.396Z,7.13
2019-03-23T07:29:33.439Z,8.07
2019-03-23T07:32:06.353Z,7.67
2019-03-23T07:34:38.681Z,7.33
2019-03-23T07:37:08.933Z,7.97
2019-03-23T07:39:39.754Z,8.00
2019-03-23T07:42:11.610Z,8.00
2019-03-23T07:44:44.765Z,8.00
2019-03-23T07:47:15.791Z,8.63
2019-03-23T07:49:46.549Z,8.43
2019-03-23T07:52:17.141Z,8.30
2019-03-23T07:54:56.423Z,9.03
2019-03-23T07:57:27.700Z,8.30
2019-03-23T08:00:00.386Z,8.83
2019-03-23T08:02:31.086Z,7.97
2019-03-23T08:05:02.950Z,8.20
2019-03-23T08:07:37.337Z,7.90
2019-03-23T08:10:09.643Z,8.80
2019-03-23T08:12:40.889Z,8.03
2019-03-23T08:15:11.453Z,8.60
2019-03-23T08:17:42.269Z,7.87
2019-03-23T08:20:15.522Z,8.27
2019-03-23T08:22:46.804Z,7.67
2019-03-23T08:25:20.753Z,8.40
2019-03-23T08:27:52.681Z,7.53
2019-03-23T08:30:24.793Z,7.87
2019-03-23T08:32:55.433Z,7.17
2019-03-23T08:35:25.780Z,8.37
2019-03-23T08:37:56.326Z,8.03
2019-03-23T08:40:28.025Z,8.77
2019-03-23T08:42:58.153Z,7.73
2019-03-23T08:45:28.136Z,7.73
2019-03-23T08:47:58.741Z,7.80
2019-03-23T08:50:30.469Z,7.30
2019-03-23T08:53:01.851Z,7.63
2019-03-23T08:55:34.315Z,8.00
2019-03-23T08:58:06.474Z,7.23
2019-03-23T09:00:37.628Z,7.77
2019-03-23T09:03:09.168Z,7.73
2019-03-23T09:05:40.008Z,8.07
2019-03-23T09:08:11.734Z,7.47
2019-03-23T09:10:43.551Z,7.83
2019-03-23T09:13:13.614Z,7.27
2019-03-23T09:15:43.953Z,7.50
2019-03-23T09:18:15.273Z,7.00
2019-03-23T09:20:48.740Z,7.27
2019-03-23T09:23:19.490Z,6.80
2019-03-23T09:25:51.049Z,6.63
2019-03-23T09:28:22.901Z,6.57
2019-03-23T09:30:54.639Z,6.40
2019-03-23T09:33:24.780Z,5.90
2019-03-23T09:35:57.706Z,6.47
2019-03-23T09:38:28.562Z,6.17
2019-03-23T09:41:00.513Z,5.60
2019-03-23T09:43:30.533Z,5.80
2019-03-23T09:46:02.029Z,5.10
2019-03-23T09:48:33.658Z,4.63
2019-03-23T09:51:04.429Z,4.87
2019-03-23T09:53:37.096Z,4.33
2019-03-23T09:56:12.425Z,4.37
2019-03-23T09:58:44.533Z,3.07
2019-03-23T10:01:15.393Z,2.50
2019-03-23T10:03:47.397Z,2.07
2019-03-23T10:06:18.160Z,1.63
2019-03-23T10:08:49.060Z,1.77
2019-03-23T10:11:19.738Z,1.40
2019-03-23T10:13:52.868Z,2.00
2019-03-23T10:16:24.185Z,1.87
2019-03-23T10:18:55.875Z,2.20
2019-03-23T10:21:28.773Z,1.67
2019-03-23T10:23:59.912Z,1.37
2019-03-23T10:26:31.101Z,1.60
2019-03-23T10:29:02.409Z,1.50
2019-03-23T10:31:33.189Z,2.00
2019-03-23T10:34:04.034Z,1.67
2019-03-23T10:36:34.450Z,1.60
2019-03-23T10:39:06.613Z,1.73
2019-03-23T10:41:38.281Z,1.50
2019-03-23T10:44:13.252Z,1.73
2019-03-23T10:46:44.053Z,2.00
2019-03-23T10:49:14.285Z,1.70
2019-03-23T10:51:44.893Z,1.47
2019-03-23T10:54:15.933Z,1.50
2019-03-23T10:56:46.485Z,1.37
2019-03-23T10:59:19.674Z,1.67
2019-03-23T11:01:50.521Z,1.60
2019-03-23T11:04:21.151Z,1.60
2019-03-23T11:06:51.121Z,1.50
2019-03-23T11:09:21.978Z,1.63
2019-03-23T11:11:52.743Z,1.30
2019-03-23T11:14:39.864Z,2.80
2019-03-23T11:17:11.078Z,2.47
2019-03-23T11:19:42.293Z,1.43
2019-03-23T11:22:19.854Z,1.60
2019-03-23T11:24:58.006Z,1.60
2019-03-23T11:27:28.037Z,1.70
2019-03-23T11:29:59.386Z,1.50
2019-03-23T11:32:30.926Z,1.40
2019-03-23T11:35:02.068Z,1.63
2019-03-23T11:37:38.479Z,1.87
2019-03-23T11:40:10.926Z,1.60
2019-03-23T11:42:49.728Z,1.57
2019-03-23T11:45:14.621Z,1.90
2019-03-23T11:47:45.098Z,1.57
2019-03-23T11:50:16.233Z,1.83
2019-03-23T11:52:47.493Z,1.60
2019-03-23T11:55:18.490Z,1.50
2019-03-23T11:57:49.149Z,1.80
2019-03-23T12:00:19.572Z,1.73
2019-03-23T12:02:50.273Z,1.60
2019-03-23T12:05:21.075Z,1.70
2019-03-23T12:07:52.049Z,1.87
2019-03-23T12:10:22.836Z,1.60
2019-03-23T12:12:53.709Z,1.50
2019-03-23T12:15:24.502Z,1.37
2019-03-23T12:17:54.556Z,1.43
2019-03-23T12:20:25.797Z,1.43
2019-03-23T12:22:56.505Z,1.83
2019-03-23T12:25:29.741Z,1.63
2019-03-23T12:28:00.257Z,1.57
2019-03-23T12:30:31.964Z,1.50
2019-03-23T12:33:03.324Z,1.57
2019-03-23T12:35:35.989Z,1.60
2019-03-23T12:38:07.710Z,1.53
2019-03-23T12:40:40.135Z,1.60
2019-03-23T12:43:12.155Z,1.60
2019-03-23T12:45:47.285Z,1.30
2019-03-23T12:48:18.138Z,1.50
2019-03-23T12:50:49.451Z,1.90
2019-03-23T12:53:21.613Z,1.23
2019-03-23T12:55:53.177Z,1.40
2019-03-23T12:58:24.510Z,1.93
2019-03-23T13:00:55.950Z,1.60
2019-03-23T13:03:30.896Z,1.60
2019-03-23T13:06:02.682Z,1.63
2019-03-23T13:08:35.392Z,1.30
2019-03-23T13:11:06.259Z,1.40
2019-03-23T13:13:37.161Z,1.90
2019-03-23T13:16:08.301Z,1.77
2019-03-23T13:18:38.596Z,1.50
2019-03-23T13:21:12.318Z,1.93
2019-03-23T13:23:44.460Z,1.70
2019-03-23T13:26:15.317Z,1.60
2019-03-23T13:28:45.287Z,1.70
2019-03-23T13:31:16.989Z,1.77
2019-03-23T13:33:49.114Z,1.50
2019-03-23T13:36:19.850Z,1.50
2019-03-23T13:38:52.010Z,1.90
2019-03-23T13:41:24.218Z,1.60
2019-03-23T13:43:55.328Z,1.50
2019-03-23T13:46:26.650Z,1.60
2019-03-23T13:48:57.769Z,1.43
2019-03-23T13:51:29.494Z,2.20
2019-03-23T13:54:03.473Z,1.80
2019-03-23T13:56:35.841Z,1.97
2019-03-23T13:59:07.369Z,2.13
2019-03-23T14:01:41.749Z,1.67
2019-03-23T14:04:12.761Z,1.60
2019-03-23T14:06:42.674Z,1.67
2019-03-23T14:09:14.165Z,1.37
2019-03-23T14:11:54.479Z,2.20
2019-03-23T14:14:19.389Z,1.70
2019-03-23T14:16:50.521Z,1.60
2019-03-23T14:19:21.785Z,1.80
2019-03-23T14:21:53.179Z,1.67
2019-03-23T14:24:24.344Z,1.40
2019-03-23T14:26:55.672Z,1.90
2019-03-23T14:29:25.811Z,1.50
2019-03-23T14:31:57.068Z,1.83
2019-03-23T14:34:28.426Z,1.40
2019-03-23T14:37:00.117Z,2.03
2019-03-23T14:39:31.501Z,1.40
2019-03-23T14:42:05.192Z,1.37
2019-03-23T14:44:36.344Z,1.70
2019-03-23T14:47:07.062Z,2.27
2019-03-23T14:49:38.821Z,1.70
2019-03-23T14:52:11.297Z,1.83
2019-03-23T14:54:59.742Z,1.43
2019-03-23T14:57:32.029Z,1.90
2019-03-23T15:00:02.039Z,1.50
2019-03-23T15:02:33.518Z,1.33
2019-03-23T15:05:04.734Z,1.40
2019-03-23T15:07:37.009Z,1.73
2019-03-23T15:10:08.669Z,1.50
2019-03-23T15:12:39.889Z,2.10
2019-03-23T15:15:10.377Z,1.60
2019-03-23T15:17:49.031Z,1.30
2019-03-23T15:20:18.360Z,1.50
2019-03-23T15:22:50.252Z,1.93
2019-03-23T15:25:22.665Z,1.43
2019-03-23T15:27:53.914Z,1.50
2019-03-23T15:30:24.600Z,1.80
2019-03-23T15:32:56.058Z,1.50
2019-03-23T15:35:26.857Z,1.40
2019-03-23T15:37:57.484Z,1.40
2019-03-23T15:40:29.925Z,1.50
2019-03-23T15:43:01.245Z,1.30
2019-03-23T15:45:33.689Z,1.60
2019-03-23T15:48:04.163Z,1.13
2019-03-23T15:50:35.946Z,1.27
2019-03-23T15:53:06.172Z,1.87
2019-03-23T15:55:36.717Z,1.17
2019-03-23T15:58:06.891Z,1.40
2019-03-23T16:00:38.337Z,1.50
2019-03-23T16:03:09.465Z,1.60
2019-03-23T16:05:43.303Z,1.83
2019-03-23T16:08:15.605Z,1.70
2019-03-23T16:10:46.897Z,1.20
2019-03-23T16:13:24.196Z,1.37
2019-03-23T16:15:55.021Z,1.43
2019-03-23T16:18:26.825Z,2.37
2019-03-23T16:20:57.446Z,1.40
2019-03-23T16:23:27.866Z,1.70
2019-03-23T16:26:00.227Z,1.70
2019-03-23T16:28:33.086Z,1.70
2019-03-23T16:31:04.312Z,1.83
2019-03-23T16:33:36.032Z,1.60
2019-03-23T16:36:07.369Z,1.60
2019-03-23T16:38:39.128Z,1.72
2019-03-23T16:41:09.916Z,1.83
2019-03-23T16:43:43.097Z,1.80
2019-03-23T16:46:13.532Z,1.47
2019-03-23T16:48:44.281Z,1.67
2019-03-23T16:51:15.470Z,1.43
2019-03-23T16:53:48.167Z,1.70
2019-03-23T16:56:18.481Z,1.77
2019-03-23T16:58:49.151Z,1.70
2019-03-23T17:01:19.618Z,1.90
2019-03-23T17:03:51.613Z,1.40
2019-03-23T17:06:22.562Z,1.70
2019-03-23T17:08:53.421Z,1.50
2019-03-23T17:11:23.940Z,1.43
2019-03-23T17:13:54.629Z,1.37
2019-03-23T17:16:25.189Z,1.37
2019-03-23T17:18:55.691Z,1.33
2019-03-23T17:21:26.832Z,1.60
2019-03-23T17:23:58.802Z,1.50
2019-03-23T17:26:30.113Z,1.37
2019-03-23T17:29:16.361Z,1.37
2019-03-23T17:31:46.468Z,1.73
2019-03-23T17:34:16.693Z,1.50
2019-03-23T17:36:50.876Z,1.60
2019-03-23T17:39:21.512Z,1.70
2019-03-23T17:41:52.610Z,1.50
2019-03-23T17:44:30.129Z,1.23
2019-03-23T17:47:00.148Z,1.67
2019-03-23T17:49:30.922Z,1.50
2019-03-23T17:52:01.622Z,1.50
2019-03-23T17:54:32.937Z,1.73
2019-03-23T17:57:11.001Z,1.73
2019-03-23T17:59:41.810Z,1.40
2019-03-23T18:02:12.707Z,1.60
2019-03-23T18:04:42.935Z,1.70
2019-03-23T18:07:14.332Z,1.33
2019-03-23T18:09:45.024Z,1.30
2019-03-23T18:12:15.353Z,1.47
2019-03-23T18:14:47.179Z,1.63
2019-03-23T18:17:18.710Z,1.43
2019-03-23T18:19:49.857Z,1.50
2019-03-23T18:22:24.440Z,1.77
2019-03-23T18:24:56.793Z,1.53
2019-03-23T18:27:27.547Z,1.50
2019-03-23T18:30:00.561Z,1.77
2019-03-23T18:32:30.924Z,1.30
2019-03-23T18:35:03.369Z,1.33
2019-03-23T18:37:35.025Z,1.40
2019-03-23T18:40:08.179Z,1.53
2019-03-23T18:42:39.090Z,1.40
2019-03-23T18:45:10.505Z,1.77
2019-03-23T18:47:42.689Z,1.87
2019-03-23T18:50:14.462Z,1.10
2019-03-23T18:52:46.940Z,1.33
2019-03-23T18:55:18.774Z,1.73
2019-03-23T18:57:50.052Z,2.83
2019-03-23T19:00:26.341Z,1.93
2019-03-23T19:03:07.897Z,1.40
2019-03-23T19:05:38.498Z,1.77
2019-03-23T19:08:11.885Z,1.37
2019-03-23T19:10:42.676Z,1.37
2019-03-23T19:13:12.880Z,1.37
2019-03-23T19:15:53.721Z,1.30
2019-03-23T19:18:28.941Z,1.40
2019-03-23T19:21:00.117Z,1.50
2019-03-23T19:23:34.512Z,1.80
2019-03-23T19:26:06.820Z,1.87
2019-03-23T19:28:38.297Z,2.20
2019-03-23T19:31:10.189Z,1.53
2019-03-23T19:33:40.805Z,1.77
2019-03-23T19:36:12.943Z,2.10
2019-03-23T19:38:44.040Z,1.70
2019-03-23T19:41:15.705Z,1.60
2019-03-23T19:43:49.117Z,1.53
2019-03-23T19:46:18.846Z,1.87
2019-03-23T19:48:50.765Z,1.90
2019-03-23T19:51:21.535Z,1.33
2019-03-23T19:53:52.226Z,1.67
2019-03-23T19:56:21.889Z,1.70
2019-03-23T19:58:51.700Z,1.70
2019-03-23T20:01:22.572Z,1.40
2019-03-23T20:03:53.624Z,1.43
2019-03-23T20:06:23.725Z,1.80
2019-03-23T20:08:54.966Z,2.03
2019-03-23T20:11:25.707Z,1.73
2019-03-23T20:13:59.025Z,1.40
2019-03-23T20:16:28.938Z,1.50
2019-03-23T20:19:01.160Z,2.00
2019-03-23T20:21:31.505Z,1.70
2019-03-23T20:24:02.141Z,2.50
2019-03-23T20:26:32.647Z,1.70
2019-03-23T20:29:03.416Z,1.90
2019-03-23T20:31:33.753Z,1.53
2019-03-23T20:34:04.777Z,2.13
2019-03-23T20:36:36.426Z,1.67
2019-03-23T20:39:08.916Z,1.50
2019-03-23T20:41:39.465Z,1.20
2019-03-23T20:44:10.841Z,2.00
2019-03-23T20:46:41.361Z,1.83
2019-03-23T20:49:11.666Z,1.53
2019-03-23T20:51:43.057Z,1.97
2019-03-23T20:54:13.823Z,1.50
2019-03-23T20:56:44.924Z,1.33
2019-03-23T20:59:15.442Z,1.83
2019-03-23T21:01:46.011Z,1.80
2019-03-23T21:04:17.950Z,1.60
2019-03-23T21:06:51.847Z,1.77
2019-03-23T21:09:25.764Z,1.40
2019-03-23T21:11:57.947Z,1.83
2019-03-23T21:14:28.769Z,1.73
2019-03-23T21:16:59.821Z,1.80
2019-03-23T21:19:31.131Z,1.83
2019-03-23T21:22:01.101Z,1.53
2019-03-23T21:24:31.362Z,1.63
2019-03-23T21:27:01.472Z,1.53
2019-03-23T21:29:31.949Z,1.47
2019-03-23T21:32:02.121Z,1.70
2019-03-23T21:34:33.572Z,1.83
2019-03-23T21:37:04.033Z,1.83
2019-03-23T21:39:36.277Z,1.60
2019-03-23T21:42:07.577Z,1.73
2019-03-23T21:44:57.711Z,1.47
2019-03-23T21:47:28.418Z,1.60
2019-03-23T21:49:59.187Z,1.47
2019-03-23T21:52:32.197Z,1.47
2019-03-23T21:55:12.940Z,1.40
2019-03-23T21:57:43.628Z,1.27
2019-03-23T22:00:17.583Z,1.40
2019-03-23T22:02:49.039Z,1.27
2019-03-23T22:05:20.008Z,1.40
2019-03-23T22:07:50.247Z,1.13
2019-03-23T22:10:25.371Z,1.63
2019-03-23T22:12:59.421Z,1.57
2019-03-23T22:15:34.853Z,1.83
2019-03-23T22:18:05.696Z,1.30
2019-03-23T22:20:36.120Z,1.30
2019-03-23T22:23:06.373Z,1.60
2019-03-23T22:25:37.642Z,1.50
2019-03-23T22:28:07.898Z,1.60
2019-03-23T22:30:39.009Z,1.37
2019-03-23T22:33:09.516Z,1.30
2019-03-23T22:35:40.903Z,1.53
2019-03-23T22:38:11.481Z,1.33
2019-03-23T22:40:41.858Z,1.27
2019-03-23T22:43:12.759Z,1.20
2019-03-23T22:45:43.534Z,1.50
2019-03-23T22:48:16.051Z,1.73
2019-03-23T22:50:46.784Z,1.70
2019-03-23T22:53:20.392Z,1.47
2019-03-23T22:55:51.709Z,1.70
2019-03-23T22:58:23.452Z,1.40
2019-03-23T23:00:53.953Z,1.37
2019-03-23T23:03:24.605Z,1.83
2019-03-23T23:05:55.081Z,1.50
2019-03-23T23:08:26.921Z,1.23
2019-03-23T23:10:57.653Z,1.27
2019-03-23T23:13:28.471Z,1.63
2019-03-23T23:15:59.233Z,1.60
2019-03-23T23:18:29.989Z,1.30
2019-03-23T23:21:00.824Z,1.60
2019-03-23T23:23:30.755Z,1.37
2019-03-23T23:26:01.850Z,1.77
2019-03-23T23:28:32.685Z,1.70
2019-03-23T23:31:03.052Z,1.33
2019-03-23T23:33:33.377Z,1.30
2019-03-23T23:36:05.047Z,1.40
2019-03-23T23:38:35.692Z,1.50
2019-03-23T23:41:06.346Z,1.37
2019-03-23T23:43:36.973Z,1.10
2019-03-23T23:46:08.791Z,1.10
2019-03-23T23:48:46.959Z,1.60
2019-03-23T23:51:14.793Z,1.50
2019-03-23T23:53:44.788Z,1.10
2019-03-23T23:56:15.867Z,1.40
2019-03-23T23:58:46.499Z,1.33
